Aérodrome :
LOGIN :

S'inscrire | Disclaimer

   EN    FR    IT 

 










Légende :    VFR   VFR Marginal   IFR   IFR Intensif   IFR Très Intensif
Visi : 
Plafond : 
>= 8 km
>= 3000ft
5 à 8 km
1000 à 3000 ft
1500m à 5 km
500 à 1000 ft
800 à 1500m
200 à 500 ft
< 800m
< 200 ft
Symboles :   Orages  Brouillard  Fortes neiges  Fortes précipitations  Vent > 20 kt
SIGMETs :   Divers  Orages  Givrage  Turbulence  Onde Orograph.  Cendres Volcan.






- Altitude de l'aérodrome : 16 ft
- Code IATA : AAE


DABB - Annaba-Rabah Bitat

DERNIER METAR :
  • 251930Z 25010KT 9999 FEW023 BKN200 27/15 Q1012

METARs EXPIRÉS :
  • 251900Z 22004KT 9999 FEW023 BKN200 26/18 Q1012
  • 251830Z 20004KT 9999 FEW023 BKN200 25/19 Q1011
  • 251800Z 00000KT 9999 FEW023 BKN200 26/19 Q1011
  • 251730Z 00000KT 9999 FEW023 BKN200 26/18 Q1011
  • 251700Z 09003KT 9999 FEW023 BKN200 26/18 Q1011

TAF TAF DABB
Valide du 25 à 18h jusqu'au 26 à 18h UTC


251700Z 2518/2618 10008KT 7000 -RA SCT023 BKN033
PROB30
TEMPO 2518/2524 FEW030CB
PROB30
TEMPO 2518/2603 4000 RA
BECMG 2610/2612 31015KT



MET'MAP, la Météo Aéronautique d'un coup d'oeil ! - Copyright ORBIFLY Décembre 2007 - Disclaimer

ORBIFLY MET'MAP TEAM :

Programmation & Développement : Alexandra Zaïnal
Sur une idée originale de : Baudouin d'Aumeries
Soutien technique & logistique : Manuel Goepfert
Assistance : Marc-Olivier Méhu




SOURCES & CREDITS :

   NOAA